Yamashiro Maru — JD3274 — position and weather

sailwx.info

Track history (hours):
 
Tides and Currents Weather Stations Pressure Air Temp Water Temp Dewpoint Dewpoint Depression Visibility Wind Speed Wind Dir Waves Ship Positions

Yamashiro Maru

Last reported at 2017-Nov-16 23:43 UTC. Time now 2017-Nov-22 02:06 UTC.
Position N 34°36' E 135°04'.

Length 57 m; draft 8.3 m.

Type: Cargo ship. MMSI: 431003028.

Date/timePositionNaut miles runAvg speedWind from/ knotsBaromVisibWave heightAir tempDewpointWater temp
2017-Nov-16 23:43N 34°36' E 135°04'210.3
2017-Nov-16 23:30N 34°37' E 135°07'611.3
2017-Nov-16 22:59N 34°37' E 135°14'511.3
2017-Nov-16 22:30N 34°38' E 135°21'5 0.2
2017-Nov-15 20:25N 34°39' E 135°26'4 8.6
2017-Nov-15 19:59N 34°38' E 135°22'5 9.3
2017-Nov-15 19:30N 34°37' E 135°17'510.1
2017-Nov-15 19:00N 34°36' E 135°11'611.2
2017-Nov-15 18:30N 34°35' E 135°04'  
2017-Nov-13 01:57N 34°38' E 135°24'2 0.2
2017-Nov-12 14:03N 34°39' E 135°26'110.2
2017-Nov-12 13:58N 34°39' E 135°25'5 9.9
2017-Nov-12 13:30N 34°38' E 135°20'510.0
2017-Nov-12 13:00N 34°37' E 135°14'510.5
2017-Nov-12 12:30N 34°35' E 135°08'  
2017-Nov-07 06:58N 34°37' E 135°09'610.9
2017-Nov-07 06:26N 34°38' E 135°16'510.7
2017-Nov-07 06:00N 34°39' E 135°22'  
Track history (hours):
 
Tides and Currents Weather Stations Pressure Air Temp Water Temp Dewpoint Dewpoint Depression Visibility Wind Speed Wind Dir Waves Ship Positions

Yamashiro Maru

Last reported at 2017-Nov-16 23:43 UTC. Time now 2017-Nov-22 02:06 UTC.
Position N 34°36' E 135°04'.

Length 57 m; draft 8.3 m.

Type: Cargo ship. MMSI: 431003028.

Date/timePositionNaut miles runAvg speedWind from/ knotsBaromVisibWave heightAir tempDewpointWater temp
2017-Nov-16 23:43N 34°36' E 135°04'210.3
2017-Nov-16 23:30N 34°37' E 135°07'611.3
2017-Nov-16 22:59N 34°37' E 135°14'511.3
2017-Nov-16 22:30N 34°38' E 135°21'5 0.2
2017-Nov-15 20:25N 34°39' E 135°26'4 8.6
2017-Nov-15 19:59N 34°38' E 135°22'5 9.3
2017-Nov-15 19:30N 34°37' E 135°17'510.1
2017-Nov-15 19:00N 34°36' E 135°11'611.2
2017-Nov-15 18:30N 34°35' E 135°04'  
2017-Nov-13 01:57N 34°38' E 135°24'2 0.2
2017-Nov-12 14:03N 34°39' E 135°26'110.2
2017-Nov-12 13:58N 34°39' E 135°25'5 9.9
2017-Nov-12 13:30N 34°38' E 135°20'510.0
2017-Nov-12 13:00N 34°37' E 135°14'510.5
2017-Nov-12 12:30N 34°35' E 135°08'  
2017-Nov-07 06:58N 34°37' E 135°09'610.9
2017-Nov-07 06:26N 34°38' E 135°16'510.7
2017-Nov-07 06:00N 34°39' E 135°22'  

Dump ship's entire track history